Terminal Aerodrome Forecast
Issued by NWS Charleston, WV

Home | Current Version | Previous Version | Text Only | Print | Product List | Glossary On
Versions: 1 2 3 4 5 6 7 8 9 10 11 12 13 14 15 16 17 18 19 20 21 22 23 24 25 26 27 28 29 30
000
FTUS41 KRLX 290800 AAA
TAFBKW
TAF AMD
KBKW 290835Z 2909/3006 VRB03KT P6SM SKC
     FM291900 22007KT P6SM SCT200
     FM300000 18007KT P6SM BKN120
     FM300500 21009KT 5SM -SHRA BR BKN020=

USA.gov is the U.S. government's official web portal to all federal, state and local government web resources and services.